Alaskan Explorer — WDB9918 — position and weather

sailwx.info

Track history (hours):
 
Tides and Currents Weather Stations Pressure Air Temp Water Temp Dewpoint Dewpoint Depression Visibility Wind Speed Wind Dir Waves Ship Positions

Alaskan Explorer

Owner: ALASKA TANKER COMPANY, LLC, Beaverton, OR. More information available from US FCC via Universal Licensing System and Coast Guard Vessel Documentation Center.

Last reported at 2017-Oct-17 01:00 UTC. Time now 2017-Oct-17 01:03 UTC.
Position N 44°43' W 125°60'.

Type: Tanker. MMSI: 303294000.

Date/timePositionNaut miles runAvg speedWind from/ knotsBaromVisibWave heightAir tempDewpointWater temp
2017-Oct-17 01:00N 44°43' W 125°60'612.9
2017-Oct-17 00:30N 44°36' W 126°00'1013.2
2017-Oct-16 23:46N 44°26' W 125°60'813.5
2017-Oct-16 23:12N 44°19' W 125°60'313.4
2017-Oct-16 22:59N 44°16' W 125°60'813.7
2017-Oct-16 22:26N 44°08' W 125°60'813.5
2017-Oct-16 21:52N 44°01' W 125°60'613.3
2017-Oct-16 21:26N 43°55' W 126°00'612.9
2017-Oct-16 21:00N 43°50' W 126°00'2112.2
2017-Oct-16 19:19N 43°29' W 125°60'30612.3
2017-Oct-15 18:23N 38°23' W 125°37'713.3
2017-Oct-15 17:51N 38°17' W 125°32'413.1
2017-Oct-15 17:30N 38°14' W 125°29'713.3
2017-Oct-15 16:59N 38°08' W 125°24'613.4
2017-Oct-15 16:30N 38°02' W 125°20'1613.5
2017-Oct-15 15:19N 37°49' W 125°08'613.4
2017-Oct-15 14:54N 37°44' W 125°04'1213.2
2017-Oct-15 14:00N 37°34' W 124°56'613.1
2017-Oct-15 13:30N 37°29' W 124°52'713.0
2017-Oct-15 13:00N 37°24' W 124°47'713.1
2017-Oct-15 12:30N 37°18' W 124°43'612.8
2017-Oct-15 12:00N 37°13' W 124°38'612.8
2017-Oct-15 11:30N 37°07' W 124°34'612.8
2017-Oct-15 11:00N 37°02' W 124°29'612.8
2017-Oct-15 10:30N 36°57' W 124°25'612.7
2017-Oct-15 10:00N 36°51' W 124°20'612.4
2017-Oct-15 09:30N 36°46' W 124°16'612.7
2017-Oct-15 09:00N 36°41' W 124°12'612.4
2017-Oct-15 08:30N 36°36' W 124°08'612.5
2017-Oct-15 08:00N 36°31' W 124°03'612.7
2017-Oct-15 07:30N 36°25' W 123°59'612.5
2017-Oct-15 07:00N 36°20' W 123°55'612.6
2017-Oct-15 06:30N 36°15' W 123°50'612.8
2017-Oct-15 06:00N 36°09' W 123°46'612.9
2017-Oct-15 05:30N 36°04' W 123°42'612.7
2017-Oct-15 05:00N 35°59' W 123°37'612.9
2017-Oct-15 04:30N 35°53' W 123°33'612.9
2017-Oct-15 04:00N 35°48' W 123°29'713.0
2017-Oct-15 03:30N 35°43' W 123°24'713.1
2017-Oct-15 03:00N 35°37' W 123°20'713.0
2017-Oct-15 02:30N 35°32' W 123°15'713.2
2017-Oct-15 02:00N 35°26' W 123°11'613.0
2017-Oct-15 01:30N 35°21' W 123°07'713.0
2017-Oct-15 01:00N 35°15' W 123°02'1312.8
2017-Oct-14 23:59N 35°04' W 122°53'612.7
2017-Oct-14 23:30N 34°59' W 122°49'612.8
2017-Oct-14 23:00N 34°54' W 122°45'612.6
2017-Oct-14 22:30N 34°49' W 122°41'612.6
2017-Oct-14 22:00N 34°43' W 122°37'813.0
2017-Oct-14 21:24N 34°37' W 122°31'612.9
2017-Oct-14 20:56N 34°32' W 122°27'613.0
2017-Oct-14 20:27N 34°27' W 122°23'813.2
2017-Oct-14 19:51N 34°20' W 122°18'513.1
2017-Oct-14 19:29N 34°16' W 122°15'813.0
2017-Oct-14 18:54N 34°09' W 122°10'512.8
2017-Oct-14 18:28N 34°05' W 122°06'612.8
2017-Oct-14 18:00N 33°60' W 122°02'612.9
2017-Oct-14 17:30N 33°55' W 121°58'713.0
2017-Oct-14 17:00N 33°49' W 121°53'713.0
2017-Oct-14 16:30N 33°44' W 121°49'612.0
2017-Oct-14 16:00N 33°42' W 121°42'713.2
2017-Oct-14 15:30N 33°42' W 121°34'713.1
2017-Oct-14 15:00N 33°42' W 121°26'713.1
2017-Oct-14 14:30N 33°42' W 121°18'713.3
2017-Oct-14 14:00N 33°42' W 121°10'713.4
2017-Oct-14 13:31N 33°42' W 121°02'713.5
2017-Oct-14 13:00N 33°42' W 120°54'713.9
2017-Oct-14 12:31N 33°42' W 120°46'714.1
2017-Oct-14 12:01N 33°42' W 120°38'714.3
2017-Oct-14 11:30N 33°42' W 120°29'714.0
2017-Oct-14 11:00N 33°42' W 120°21'714.0
2017-Oct-14 10:31N 33°42' W 120°12'714.3
2017-Oct-14 10:00N 33°42' W 120°03'714.6
2017-Oct-14 09:31N 33°42' W 119°55'714.7
2017-Oct-14 09:01N 33°42' W 119°46'714.6
2017-Oct-14 08:31N 33°42' W 119°37'714.9
2017-Oct-14 08:01N 33°42' W 119°28'714.9
2017-Oct-14 07:31N 33°42' W 119°19'714.7
2017-Oct-14 07:01N 33°41' W 119°10'612.9
2017-Oct-14 06:30N 33°40' W 119°03'611.5
2017-Oct-14 06:01N 33°39' W 118°56'611.7
2017-Oct-14 05:31N 33°40' W 118°49'611.8
2017-Oct-14 05:00N 33°39' W 118°42'611.9
2017-Oct-14 04:30N 33°39' W 118°35'611.8
2017-Oct-14 04:01N 33°39' W 118°28'611.8
2017-Oct-14 03:30N 33°38' W 118°21'611.7
2017-Oct-14 03:00N 33°39' W 118°14'5 9.2
2017-Oct-14 02:31N 33°43' W 118°11'2 3.1
2017-Oct-14 02:00N 33°44' W 118°13'0 0.1
2017-Oct-14 01:29N 33°44' W 118°13'0 0.0
2017-Oct-14 00:59N 33°44' W 118°13'0 0.0
2017-Oct-14 00:29N 33°44' W 118°13'0 0.1
2017-Oct-13 23:59N 33°44' W 118°13'0 0.0
2017-Oct-13 23:29N 33°44' W 118°13'0 0.0
2017-Oct-13 22:59N 33°44' W 118°13'0 0.0
2017-Oct-13 22:29N 33°44' W 118°13'0 0.0
2017-Oct-13 21:53N 33°44' W 118°13'0 0.0
2017-Oct-13 21:29N 33°44' W 118°13'0 0.0
2017-Oct-13 20:53N 33°44' W 118°13'0 0.0
2017-Oct-13 20:11N 33°44' W 118°13'0 0.0
2017-Oct-13 19:56N 33°44' W 118°13'0 0.1
2017-Oct-13 19:29N 33°44' W 118°13'0 0.1
2017-Oct-13 18:59N 33°44' W 118°13'0 0.1
2017-Oct-13 18:29N 33°44' W 118°13'0 0.1
2017-Oct-13 17:59N 33°44' W 118°13'0 0.1
2017-Oct-13 17:29N 33°44' W 118°13'0 0.1
2017-Oct-13 16:59N 33°44' W 118°13'0 0.1
2017-Oct-13 16:29N 33°44' W 118°13'0 0.0
2017-Oct-13 16:00N 33°44' W 118°13'1 2.5
2017-Oct-13 15:30N 33°45' W 118°13'0 0.2
2017-Oct-13 14:58N 33°45' W 118°13'0 0.0
2017-Oct-13 14:28N 33°45' W 118°13'0 0.0
2017-Oct-13 13:58N 33°45' W 118°13'0 0.0
2017-Oct-13 13:28N 33°45' W 118°13'0 0.0
2017-Oct-13 12:55N 33°45' W 118°13'0 0.0
2017-Oct-13 12:28N 33°45' W 118°13'0 0.0
2017-Oct-13 11:58N 33°45' W 118°13'0 0.0
2017-Oct-13 11:25N 33°45' W 118°13'0 0.0
2017-Oct-13 10:58N 33°45' W 118°13'0 0.0
2017-Oct-13 10:28N 33°45' W 118°13'0 0.0
2017-Oct-13 09:58N 33°45' W 118°13'0 0.0
2017-Oct-13 09:28N 33°45' W 118°13'0 0.0
2017-Oct-13 08:58N 33°45' W 118°13'0 0.0
2017-Oct-13 08:28N 33°45' W 118°13'0 0.0
2017-Oct-13 07:58N 33°45' W 118°13'0 0.0
2017-Oct-13 07:22N 33°45' W 118°13'0 0.0
2017-Oct-13 06:58N 33°45' W 118°13'0 0.0
2017-Oct-13 06:22N 33°45' W 118°13'0 0.0
2017-Oct-13 05:58N 33°45' W 118°13'0 0.0
2017-Oct-13 05:28N 33°45' W 118°13'0 0.0
2017-Oct-13 04:55N 33°45' W 118°13'0 0.0
2017-Oct-13 04:28N 33°45' W 118°13'0 0.0
2017-Oct-13 03:55N 33°45' W 118°13'0 0.0
2017-Oct-13 03:28N 33°45' W 118°13'0 0.0
2017-Oct-13 02:55N 33°45' W 118°13'0 0.0
2017-Oct-13 02:28N 33°45' W 118°13'0 0.0
2017-Oct-13 01:58N 33°45' W 118°13'0 0.0
2017-Oct-13 01:28N 33°45' W 118°13'0 0.0
2017-Oct-13 00:58N 33°45' W 118°13'0 0.0
2017-Oct-13 00:28N 33°45' W 118°13'0 0.0
2017-Oct-12 23:58N 33°45' W 118°13'0 0.0
2017-Oct-12 23:28N 33°45' W 118°13'0 0.0
2017-Oct-12 22:58N 33°45' W 118°13'0 0.0
2017-Oct-12 22:28N 33°45' W 118°13'0 0.0
2017-Oct-12 21:31N 33°45' W 118°13'0 0.0
2017-Oct-12 20:37N 33°45' W 118°13'0 0.0
2017-Oct-12 19:43N 33°45' W 118°13'0 0.0
2017-Oct-12 18:01N 33°45' W 118°13'0 0.0
2017-Oct-12 17:49N 33°45' W 118°13'0 0.0
2017-Oct-12 17:19N 33°45' W 118°13'0 0.0
2017-Oct-12 16:55N 33°45' W 118°13'0 0.0
2017-Oct-12 16:13N 33°45' W 118°13'0 0.0
2017-Oct-12 15:58N 33°45' W 118°13'0 0.0
2017-Oct-12 15:28N 33°45' W 118°13'0 0.3
2017-Oct-12 15:00N 33°45' W 118°13'1 2.7
2017-Oct-12 14:30N 33°44' W 118°12'2 4.3
2017-Oct-12 14:00N 33°42' W 118°11'3 6.9
2017-Oct-12 13:30N 33°39' W 118°11'5 9.4
2017-Oct-12 13:00N 33°36' W 118°15'611.7
2017-Oct-12 12:30N 33°36' W 118°22'611.7
2017-Oct-12 11:59N 33°36' W 118°30'611.8
2017-Oct-12 11:30N 33°36' W 118°36'611.7
2017-Oct-12 11:00N 33°36' W 118°43'611.8
2017-Oct-12 10:28N 33°37' W 118°51'511.6
2017-Oct-12 10:00N 33°37' W 118°57'611.7
2017-Oct-12 09:30N 33°38' W 119°04'611.6
2017-Oct-12 09:00N 33°38' W 119°11'611.8
2017-Oct-12 08:30N 33°38' W 119°18'611.7
2017-Oct-12 08:00N 33°39' W 119°25'611.8
2017-Oct-12 07:30N 33°39' W 119°32'611.8
2017-Oct-12 07:01N 33°39' W 119°39'611.7
2017-Oct-12 06:30N 33°38' W 119°46'611.4
2017-Oct-12 06:00N 33°38' W 119°53'611.6
2017-Oct-12 05:30N 33°38' W 120°00'611.5
2017-Oct-12 05:00N 33°38' W 120°07'611.9
2017-Oct-12 04:30N 33°38' W 120°14'611.6
2017-Oct-12 04:00N 33°38' W 120°21'611.5
2017-Oct-12 03:30N 33°38' W 120°28'611.7
2017-Oct-12 03:00N 33°38' W 120°35'612.0
2017-Oct-12 02:29N 33°38' W 120°43'5 9.9
2017-Oct-12 02:00N 33°38' W 120°48'510.5
2017-Oct-12 01:31N 33°38' W 120°55'611.9
2017-Oct-12 01:00N 33°38' W 121°02'611.7
2017-Oct-12 00:30N 33°38' W 121°09'611.8
2017-Oct-12 00:00N 33°38' W 121°16'611.9
2017-Oct-11 23:30N 33°38' W 121°23'711.9
2017-Oct-11 22:56N 33°38' W 121°31'1210.5
2017-Oct-11 21:47N 33°43' W 121°44'411.9
2017-Oct-11 21:25N 33°47' W 121°47'2311.8
2017-Oct-11 19:28N 34°06' W 122°02'612.1
2017-Oct-11 19:00N 34°11' W 122°06'26712.4
2017-Oct-10 21:33N 37°53' W 125°08'113.2
2017-Oct-10 21:30N 37°54' W 125°08'713.5
2017-Oct-10 21:00N 37°59' W 125°13'1320.2
2017-Oct-10 21:00N 38°00' W 125°12'713.0 360 / 231014.710.8 15.610.716.7
2017-Oct-10 20:25N 38°06' W 125°18'612.6
2017-Oct-10 19:57N 38°10' W 125°22'27012.2
2017-Oct-09 21:47N 41°55' W 128°36'85107.9
2017-Oct-09 21:00N 42°00' W 126°42'18515.4 020 / 261019.110.8 16.110.318.3
2017-Oct-09 09:00N 43°42' W 130°12'28812.0 020 / 141027.210.8 15.610.718.3
2017-Oct-08 09:00N 47°42' W 134°00'15112.6 320 / 171028.510.8 14.4 8.316.7
2017-Oct-07 21:00N 49°48' W 136°06'14912.4 290 / 291023.210.8 14.4 9.613.9
2017-Oct-07 09:00N 51°54' W 138°12'   290 / 331013.3 5.4 11.1 9.114.4
Track history (hours):
 
Tides and Currents Weather Stations Pressure Air Temp Water Temp Dewpoint Dewpoint Depression Visibility Wind Speed Wind Dir Waves Ship Positions

Alaskan Explorer

Owner: ALASKA TANKER COMPANY, LLC, Beaverton, OR. More information available from US FCC via Universal Licensing System and Coast Guard Vessel Documentation Center.

Last reported at 2017-Oct-17 01:00 UTC. Time now 2017-Oct-17 01:03 UTC.
Position N 44°43' W 125°60'.

Type: Tanker. MMSI: 303294000.

Date/timePositionNaut miles runAvg speedWind from/ knotsBaromVisibWave heightAir tempDewpointWater temp
2017-Oct-17 01:00N 44°43' W 125°60'612.9
2017-Oct-17 00:30N 44°36' W 126°00'1013.2
2017-Oct-16 23:46N 44°26' W 125°60'813.5
2017-Oct-16 23:12N 44°19' W 125°60'313.4
2017-Oct-16 22:59N 44°16' W 125°60'813.7
2017-Oct-16 22:26N 44°08' W 125°60'813.5
2017-Oct-16 21:52N 44°01' W 125°60'613.3
2017-Oct-16 21:26N 43°55' W 126°00'612.9
2017-Oct-16 21:00N 43°50' W 126°00'2112.2
2017-Oct-16 19:19N 43°29' W 125°60'30612.3
2017-Oct-15 18:23N 38°23' W 125°37'713.3
2017-Oct-15 17:51N 38°17' W 125°32'413.1
2017-Oct-15 17:30N 38°14' W 125°29'713.3
2017-Oct-15 16:59N 38°08' W 125°24'613.4
2017-Oct-15 16:30N 38°02' W 125°20'1613.5
2017-Oct-15 15:19N 37°49' W 125°08'613.4
2017-Oct-15 14:54N 37°44' W 125°04'1213.2
2017-Oct-15 14:00N 37°34' W 124°56'613.1
2017-Oct-15 13:30N 37°29' W 124°52'713.0
2017-Oct-15 13:00N 37°24' W 124°47'713.1
2017-Oct-15 12:30N 37°18' W 124°43'612.8
2017-Oct-15 12:00N 37°13' W 124°38'612.8
2017-Oct-15 11:30N 37°07' W 124°34'612.8
2017-Oct-15 11:00N 37°02' W 124°29'612.8
2017-Oct-15 10:30N 36°57' W 124°25'612.7
2017-Oct-15 10:00N 36°51' W 124°20'612.4
2017-Oct-15 09:30N 36°46' W 124°16'612.7
2017-Oct-15 09:00N 36°41' W 124°12'612.4
2017-Oct-15 08:30N 36°36' W 124°08'612.5
2017-Oct-15 08:00N 36°31' W 124°03'612.7
2017-Oct-15 07:30N 36°25' W 123°59'612.5
2017-Oct-15 07:00N 36°20' W 123°55'612.6
2017-Oct-15 06:30N 36°15' W 123°50'612.8
2017-Oct-15 06:00N 36°09' W 123°46'612.9
2017-Oct-15 05:30N 36°04' W 123°42'612.7
2017-Oct-15 05:00N 35°59' W 123°37'612.9
2017-Oct-15 04:30N 35°53' W 123°33'612.9
2017-Oct-15 04:00N 35°48' W 123°29'713.0
2017-Oct-15 03:30N 35°43' W 123°24'713.1
2017-Oct-15 03:00N 35°37' W 123°20'713.0
2017-Oct-15 02:30N 35°32' W 123°15'713.2
2017-Oct-15 02:00N 35°26' W 123°11'613.0
2017-Oct-15 01:30N 35°21' W 123°07'713.0
2017-Oct-15 01:00N 35°15' W 123°02'1312.8
2017-Oct-14 23:59N 35°04' W 122°53'612.7
2017-Oct-14 23:30N 34°59' W 122°49'612.8
2017-Oct-14 23:00N 34°54' W 122°45'612.6
2017-Oct-14 22:30N 34°49' W 122°41'612.6
2017-Oct-14 22:00N 34°43' W 122°37'813.0
2017-Oct-14 21:24N 34°37' W 122°31'612.9
2017-Oct-14 20:56N 34°32' W 122°27'613.0
2017-Oct-14 20:27N 34°27' W 122°23'813.2
2017-Oct-14 19:51N 34°20' W 122°18'513.1
2017-Oct-14 19:29N 34°16' W 122°15'813.0
2017-Oct-14 18:54N 34°09' W 122°10'512.8
2017-Oct-14 18:28N 34°05' W 122°06'612.8
2017-Oct-14 18:00N 33°60' W 122°02'612.9
2017-Oct-14 17:30N 33°55' W 121°58'713.0
2017-Oct-14 17:00N 33°49' W 121°53'713.0
2017-Oct-14 16:30N 33°44' W 121°49'612.0
2017-Oct-14 16:00N 33°42' W 121°42'713.2
2017-Oct-14 15:30N 33°42' W 121°34'713.1
2017-Oct-14 15:00N 33°42' W 121°26'713.1
2017-Oct-14 14:30N 33°42' W 121°18'713.3
2017-Oct-14 14:00N 33°42' W 121°10'713.4
2017-Oct-14 13:31N 33°42' W 121°02'713.5
2017-Oct-14 13:00N 33°42' W 120°54'713.9
2017-Oct-14 12:31N 33°42' W 120°46'714.1
2017-Oct-14 12:01N 33°42' W 120°38'714.3
2017-Oct-14 11:30N 33°42' W 120°29'714.0
2017-Oct-14 11:00N 33°42' W 120°21'714.0
2017-Oct-14 10:31N 33°42' W 120°12'714.3
2017-Oct-14 10:00N 33°42' W 120°03'714.6
2017-Oct-14 09:31N 33°42' W 119°55'714.7
2017-Oct-14 09:01N 33°42' W 119°46'714.6
2017-Oct-14 08:31N 33°42' W 119°37'714.9
2017-Oct-14 08:01N 33°42' W 119°28'714.9
2017-Oct-14 07:31N 33°42' W 119°19'714.7
2017-Oct-14 07:01N 33°41' W 119°10'612.9
2017-Oct-14 06:30N 33°40' W 119°03'611.5
2017-Oct-14 06:01N 33°39' W 118°56'611.7
2017-Oct-14 05:31N 33°40' W 118°49'611.8
2017-Oct-14 05:00N 33°39' W 118°42'611.9
2017-Oct-14 04:30N 33°39' W 118°35'611.8
2017-Oct-14 04:01N 33°39' W 118°28'611.8
2017-Oct-14 03:30N 33°38' W 118°21'611.7
2017-Oct-14 03:00N 33°39' W 118°14'5 9.2
2017-Oct-14 02:31N 33°43' W 118°11'2 3.1
2017-Oct-14 02:00N 33°44' W 118°13'0 0.1
2017-Oct-14 01:29N 33°44' W 118°13'0 0.0
2017-Oct-14 00:59N 33°44' W 118°13'0 0.0
2017-Oct-14 00:29N 33°44' W 118°13'0 0.1
2017-Oct-13 23:59N 33°44' W 118°13'0 0.0
2017-Oct-13 23:29N 33°44' W 118°13'0 0.0
2017-Oct-13 22:59N 33°44' W 118°13'0 0.0
2017-Oct-13 22:29N 33°44' W 118°13'0 0.0
2017-Oct-13 21:53N 33°44' W 118°13'0 0.0
2017-Oct-13 21:29N 33°44' W 118°13'0 0.0
2017-Oct-13 20:53N 33°44' W 118°13'0 0.0
2017-Oct-13 20:11N 33°44' W 118°13'0 0.0
2017-Oct-13 19:56N 33°44' W 118°13'0 0.1
2017-Oct-13 19:29N 33°44' W 118°13'0 0.1
2017-Oct-13 18:59N 33°44' W 118°13'0 0.1
2017-Oct-13 18:29N 33°44' W 118°13'0 0.1
2017-Oct-13 17:59N 33°44' W 118°13'0 0.1
2017-Oct-13 17:29N 33°44' W 118°13'0 0.1
2017-Oct-13 16:59N 33°44' W 118°13'0 0.1
2017-Oct-13 16:29N 33°44' W 118°13'0 0.0
2017-Oct-13 16:00N 33°44' W 118°13'1 2.5
2017-Oct-13 15:30N 33°45' W 118°13'0 0.2
2017-Oct-13 14:58N 33°45' W 118°13'0 0.0
2017-Oct-13 14:28N 33°45' W 118°13'0 0.0
2017-Oct-13 13:58N 33°45' W 118°13'0 0.0
2017-Oct-13 13:28N 33°45' W 118°13'0 0.0
2017-Oct-13 12:55N 33°45' W 118°13'0 0.0
2017-Oct-13 12:28N 33°45' W 118°13'0 0.0
2017-Oct-13 11:58N 33°45' W 118°13'0 0.0
2017-Oct-13 11:25N 33°45' W 118°13'0 0.0
2017-Oct-13 10:58N 33°45' W 118°13'0 0.0
2017-Oct-13 10:28N 33°45' W 118°13'0 0.0
2017-Oct-13 09:58N 33°45' W 118°13'0 0.0
2017-Oct-13 09:28N 33°45' W 118°13'0 0.0
2017-Oct-13 08:58N 33°45' W 118°13'0 0.0
2017-Oct-13 08:28N 33°45' W 118°13'0 0.0
2017-Oct-13 07:58N 33°45' W 118°13'0 0.0
2017-Oct-13 07:22N 33°45' W 118°13'0 0.0
2017-Oct-13 06:58N 33°45' W 118°13'0 0.0
2017-Oct-13 06:22N 33°45' W 118°13'0 0.0
2017-Oct-13 05:58N 33°45' W 118°13'0 0.0
2017-Oct-13 05:28N 33°45' W 118°13'0 0.0
2017-Oct-13 04:55N 33°45' W 118°13'0 0.0
2017-Oct-13 04:28N 33°45' W 118°13'0 0.0
2017-Oct-13 03:55N 33°45' W 118°13'0 0.0
2017-Oct-13 03:28N 33°45' W 118°13'0 0.0
2017-Oct-13 02:55N 33°45' W 118°13'0 0.0
2017-Oct-13 02:28N 33°45' W 118°13'0 0.0
2017-Oct-13 01:58N 33°45' W 118°13'0 0.0
2017-Oct-13 01:28N 33°45' W 118°13'0 0.0
2017-Oct-13 00:58N 33°45' W 118°13'0 0.0
2017-Oct-13 00:28N 33°45' W 118°13'0 0.0
2017-Oct-12 23:58N 33°45' W 118°13'0 0.0
2017-Oct-12 23:28N 33°45' W 118°13'0 0.0
2017-Oct-12 22:58N 33°45' W 118°13'0 0.0
2017-Oct-12 22:28N 33°45' W 118°13'0 0.0
2017-Oct-12 21:31N 33°45' W 118°13'0 0.0
2017-Oct-12 20:37N 33°45' W 118°13'0 0.0
2017-Oct-12 19:43N 33°45' W 118°13'0 0.0
2017-Oct-12 18:01N 33°45' W 118°13'0 0.0
2017-Oct-12 17:49N 33°45' W 118°13'0 0.0
2017-Oct-12 17:19N 33°45' W 118°13'0 0.0
2017-Oct-12 16:55N 33°45' W 118°13'0 0.0
2017-Oct-12 16:13N 33°45' W 118°13'0 0.0
2017-Oct-12 15:58N 33°45' W 118°13'0 0.0
2017-Oct-12 15:28N 33°45' W 118°13'0 0.3
2017-Oct-12 15:00N 33°45' W 118°13'1 2.7
2017-Oct-12 14:30N 33°44' W 118°12'2 4.3
2017-Oct-12 14:00N 33°42' W 118°11'3 6.9
2017-Oct-12 13:30N 33°39' W 118°11'5 9.4
2017-Oct-12 13:00N 33°36' W 118°15'611.7
2017-Oct-12 12:30N 33°36' W 118°22'611.7
2017-Oct-12 11:59N 33°36' W 118°30'611.8
2017-Oct-12 11:30N 33°36' W 118°36'611.7
2017-Oct-12 11:00N 33°36' W 118°43'611.8
2017-Oct-12 10:28N 33°37' W 118°51'511.6
2017-Oct-12 10:00N 33°37' W 118°57'611.7
2017-Oct-12 09:30N 33°38' W 119°04'611.6
2017-Oct-12 09:00N 33°38' W 119°11'611.8
2017-Oct-12 08:30N 33°38' W 119°18'611.7
2017-Oct-12 08:00N 33°39' W 119°25'611.8
2017-Oct-12 07:30N 33°39' W 119°32'611.8
2017-Oct-12 07:01N 33°39' W 119°39'611.7
2017-Oct-12 06:30N 33°38' W 119°46'611.4
2017-Oct-12 06:00N 33°38' W 119°53'611.6
2017-Oct-12 05:30N 33°38' W 120°00'611.5
2017-Oct-12 05:00N 33°38' W 120°07'611.9
2017-Oct-12 04:30N 33°38' W 120°14'611.6
2017-Oct-12 04:00N 33°38' W 120°21'611.5
2017-Oct-12 03:30N 33°38' W 120°28'611.7
2017-Oct-12 03:00N 33°38' W 120°35'612.0
2017-Oct-12 02:29N 33°38' W 120°43'5 9.9
2017-Oct-12 02:00N 33°38' W 120°48'510.5
2017-Oct-12 01:31N 33°38' W 120°55'611.9
2017-Oct-12 01:00N 33°38' W 121°02'611.7
2017-Oct-12 00:30N 33°38' W 121°09'611.8
2017-Oct-12 00:00N 33°38' W 121°16'611.9
2017-Oct-11 23:30N 33°38' W 121°23'711.9
2017-Oct-11 22:56N 33°38' W 121°31'1210.5
2017-Oct-11 21:47N 33°43' W 121°44'411.9
2017-Oct-11 21:25N 33°47' W 121°47'2311.8
2017-Oct-11 19:28N 34°06' W 122°02'612.1
2017-Oct-11 19:00N 34°11' W 122°06'26712.4
2017-Oct-10 21:33N 37°53' W 125°08'113.2
2017-Oct-10 21:30N 37°54' W 125°08'713.5
2017-Oct-10 21:00N 37°59' W 125°13'1320.2
2017-Oct-10 21:00N 38°00' W 125°12'713.0 360 / 231014.710.8 15.610.716.7
2017-Oct-10 20:25N 38°06' W 125°18'612.6
2017-Oct-10 19:57N 38°10' W 125°22'27012.2
2017-Oct-09 21:47N 41°55' W 128°36'85107.9
2017-Oct-09 21:00N 42°00' W 126°42'18515.4 020 / 261019.110.8 16.110.318.3
2017-Oct-09 09:00N 43°42' W 130°12'28812.0 020 / 141027.210.8 15.610.718.3
2017-Oct-08 09:00N 47°42' W 134°00'15112.6 320 / 171028.510.8 14.4 8.316.7
2017-Oct-07 21:00N 49°48' W 136°06'14912.4 290 / 291023.210.8 14.4 9.613.9
2017-Oct-07 09:00N 51°54' W 138°12'   290 / 331013.3 5.4 11.1 9.114.4

Dump ship's entire track history